Terminal Aerodrome Forecast
Issued by NWS Mt. Holly, NJ

Home | Current Version | Previous Version | Text Only | Print | Product List | Glossary On
Versions: 1 2 3 4 5 6 7 8 9 10 11 12 13 14 15 16 17 18 19 20
890
FTUS41 KPHI 271502 AAA
TAFRDG
TAF AMD
KRDG 271502Z 2715/2812 16008KT P6SM BKN015
     FM271600 16008KT P6SM BKN040
     FM280300 17006KT P6SM BKN030 PROB30 2803/2807 3SM -SHRA BKN015
     FM280900 27004KT P6SM SCT025=

USA.gov is the U.S. government's official web portal to all federal, state and local government web resources and services.